Time;durP1;ratioP1;P1;durP2;ratioP2;P2;SDS_P1;SDS_P2;PMS_P1;PMS_P2;Temp;Humidity;BMP_temperature;BMP_pressure;BME280_temperature;BME280_humidity;BME280_pressure;Samples;Min_cycle;Max_cycle;Signal;HPM_P1;HPM_P2
2021/03/28 00:00:52;;;;;;;3.80;2.50;;;;;;;;;;5025503;28;20195;-82
2021/03/28 00:03:25;;;;;;;3.60;2.40;;;;;;;;;;5026627;28;20206;-84
2021/03/28 00:05:52;;;;;;;4.57;2.20;;;;;;;;;;5015171;28;20365;-83
2021/03/28 00:08:23;;;;;;;4.72;2.40;;;;;;;;;;5026699;28;20619;-83
2021/03/28 00:10:53;;;;;;;3.70;1.88;;;;;;;;;;5015757;28;20192;-82
2021/03/28 00:13:23;;;;;;;4.55;2.22;;;;;;;;;;5026506;28;20194;-83
2021/03/28 00:16:06;;;;;;;3.35;1.85;;;;;;;;;;5015253;28;20215;-83
2021/03/28 00:18:49;;;;;;;1.92;1.73;;;;;;;;;;5025285;28;20202;-83
2021/03/28 00:21:19;;;;;;;5.03;2.10;;;;;;;;;;5026473;28;20202;-84
2021/03/28 00:23:50;;;;;;;3.60;2.10;;;;;;;;;;5023187;28;20211;-82
2021/03/28 00:26:26;;;;;;;2.10;1.80;;;;;;;;;;5024696;28;20222;-83
2021/03/28 00:29:09;;;;;;;2.97;1.90;;;;;;;;;;5025763;28;20216;-81
2021/03/28 00:31:40;;;;;;;5.28;1.85;;;;;;;;;;5026608;28;20200;-84
2021/03/28 00:34:22;;;;;;;2.88;1.90;;;;;;;;;;5029329;28;20217;-82
2021/03/28 00:36:52;;;;;;;5.45;1.88;;;;;;;;;;5036134;28;20263;-83
2021/03/28 00:39:36;;;;;;;3.97;2.08;;;;;;;;;;5036173;28;20534;-82
2021/03/28 00:42:09;;;;;;;1.85;1.75;;;;;;;;;;5040645;28;20190;-81
2021/03/28 00:44:50;;;;;;;2.90;1.60;;;;;;;;;;5054671;28;20261;-82
2021/03/28 00:47:23;;;;;;;3.83;1.70;;;;;;;;;;5055693;28;20252;-81
2021/03/28 00:50:26;;;;;;;5.30;2.22;;;;;;;;;;5055464;28;20206;-81
2021/03/28 00:52:55;;;;;;;4.18;2.20;;;;;;;;;;5055661;28;20225;-82
2021/03/28 00:55:25;;;;;;;2.55;1.70;;;;;;;;;;5054366;28;20206;-80
2021/03/28 00:58:06;;;;;;;4.20;2.08;;;;;;;;;;5052007;28;20221;-80
2021/03/28 01:01:22;;;;;;;5.45;1.92;;;;;;;;;;5045046;28;20249;-81
2021/03/28 01:04:08;;;;;;;2.72;1.75;;;;;;;;;;5020906;28;20253;-84
2021/03/28 01:06:43;;;;;;;4.03;2.28;;;;;;;;;;5027032;28;20253;-83
2021/03/28 01:09:18;;;;;;;4.70;1.63;;;;;;;;;;5027588;28;20236;-83
2021/03/28 01:12:30;;;;;;;5.70;2.10;;;;;;;;;;5026358;28;20195;-83
2021/03/28 01:15:20;;;;;;;5.05;1.58;;;;;;;;;;5028751;28;20227;-83
2021/03/28 01:17:50;;;;;;;4.72;1.90;;;;;;;;;;5026161;28;20676;-83
2021/03/28 01:20:31;;;;;;;3.35;1.60;;;;;;;;;;5025986;28;20199;-84
2021/03/28 01:23:35;;;;;;;2.63;1.63;;;;;;;;;;5020511;28;20584;-84
2021/03/28 01:26:38;;;;;;;9.05;2.63;;;;;;;;;;4982374;28;20253;-84
2021/03/28 01:29:28;;;;;;;2.55;2.08;;;;;;;;;;4948486;28;20211;-83
2021/03/28 01:31:59;;;;;;;7.35;1.73;;;;;;;;;;5021715;28;20195;-83
2021/03/28 01:34:30;;;;;;;7.03;1.67;;;;;;;;;;5018477;28;20247;-83
2021/03/28 01:37:07;;;;;;;3.85;2.03;;;;;;;;;;5017507;28;20278;-82
2021/03/28 01:39:46;;;;;;;6.40;2.55;;;;;;;;;;5018092;28;20210;-84
2021/03/28 01:42:28;;;;;;;4.95;2.03;;;;;;;;;;5017737;28;20266;-83
2021/03/28 01:45:06;;;;;;;3.42;1.88;;;;;;;;;;5018204;28;20692;-84
2021/03/28 01:47:45;;;;;;;5.20;1.80;;;;;;;;;;5017281;28;20226;-84
2021/03/28 01:50:33;;;;;;;6.00;2.05;;;;;;;;;;5018079;28;20213;-84
2021/03/28 01:53:15;;;;;;;3.25;1.77;;;;;;;;;;5014812;28;20197;-84
2021/03/28 01:55:49;;;;;;;4.05;2.05;;;;;;;;;;5015774;28;20337;-84
2021/03/28 01:58:29;;;;;;;4.40;1.70;;;;;;;;;;5016445;28;20187;-83
2021/03/28 02:01:15;;;;;;;2.67;1.63;;;;;;;;;;5015853;28;20667;-84
2021/03/28 02:03:53;;;;;;;2.15;1.63;;;;;;;;;;5015810;28;20294;-84
2021/03/28 02:06:49;;;;;;;5.50;1.65;;;;;;;;;;5015318;28;20244;-83
2021/03/28 02:09:31;;;;;;;5.53;2.00;;;;;;;;;;5016221;28;20183;-83
2021/03/28 02:12:07;;;;;;;5.35;2.10;;;;;;;;;;5015622;28;20199;-83
2021/03/28 02:15:00;;;;;;;2.22;1.73;;;;;;;;;;5015293;28;20188;-84
2021/03/28 02:17:49;;;;;;;2.95;2.03;;;;;;;;;;4980757;28;20227;-83
2021/03/28 02:20:37;;;;;;;5.90;2.80;;;;;;;;;;5015513;28;20634;-83
2021/03/28 02:23:18;;;;;;;3.38;1.95;;;;;;;;;;5015720;28;20270;-84
2021/03/28 02:25:53;;;;;;;2.40;1.85;;;;;;;;;;5015784;28;20298;-84
2021/03/28 02:28:34;;;;;;;1.80;1.67;;;;;;;;;;5015342;28;20619;-82
2021/03/28 02:31:09;;;;;;;5.03;2.00;;;;;;;;;;5015183;28;20656;-84
2021/03/28 02:33:50;;;;;;;5.13;2.63;;;;;;;;;;5015431;28;20187;-84
2021/03/28 02:36:35;;;;;;;2.70;1.95;;;;;;;;;;5015228;28;20225;-83
2021/03/28 02:39:26;;;;;;;4.68;3.08;;;;;;;;;;5014723;28;20195;-82
2021/03/28 02:42:10;;;;;;;6.97;3.17;;;;;;;;;;5014917;28;20203;-83
2021/03/28 02:44:53;;;;;;;7.53;2.80;;;;;;;;;;5014542;28;20589;-84
2021/03/28 02:47:38;;;;;;;3.28;2.58;;;;;;;;;;5014320;28;20722;-83
2021/03/28 02:50:48;;;;;;;5.55;3.28;;;;;;;;;;5013086;28;20202;-84
2021/03/28 02:53:27;;;;;;;7.60;3.08;;;;;;;;;;4999083;28;20206;-83
2021/03/28 02:56:18;;;;;;;3.33;2.30;;;;;;;;;;5014068;28;20245;-83
2021/03/28 02:59:03;;;;;;;7.70;3.45;;;;;;;;;;5015121;28;20191;-84
2021/03/28 03:01:42;;;;;;;4.00;2.17;;;;;;;;;;5014747;28;20206;-82
2021/03/28 03:04:32;;;;;;;6.40;2.53;;;;;;;;;;5015401;28;20761;-83
2021/03/28 03:07:17;;;;;;;6.25;2.63;;;;;;;;;;5018010;28;20305;-83
2021/03/28 03:10:03;;;;;;;7.32;3.42;;;;;;;;;;5018896;28;20199;-82
2021/03/28 03:12:43;;;;;;;4.32;3.00;;;;;;;;;;5017689;28;20238;-83
2021/03/28 03:15:26;;;;;;;5.18;2.88;;;;;;;;;;5018283;28;20704;-83
2021/03/28 03:18:44;;;;;;;2.90;2.03;;;;;;;;;;5017844;28;20247;-84
2021/03/28 03:22:16;;;;;;;3.75;2.78;;;;;;;;;;5017758;28;20203;-82
2021/03/28 03:25:52;;;;;;;2.97;2.33;;;;;;;;;;5017635;28;20223;-84
2021/03/28 03:28:42;;;;;;;3.90;2.85;;;;;;;;;;5017281;28;20186;-84
2021/03/28 03:31:43;;;;;;;3.33;2.25;;;;;;;;;;5017705;28;20191;-82
2021/03/28 03:34:42;;;;;;;4.40;2.47;;;;;;;;;;5016778;28;20245;-83
2021/03/28 03:37:59;;;;;;;3.55;2.17;;;;;;;;;;4977627;28;20219;-83
2021/03/28 03:40:41;;;;;;;5.65;2.03;;;;;;;;;;5011010;28;20203;-83
2021/03/28 03:43:37;;;;;;;4.80;2.20;;;;;;;;;;5017021;28;20553;-83
2021/03/28 03:46:13;;;;;;;3.55;2.95;;;;;;;;;;5016349;28;20215;-83
2021/03/28 03:49:17;;;;;;;6.65;2.60;;;;;;;;;;5017401;28;20225;-83
2021/03/28 03:52:03;;;;;;;4.95;2.47;;;;;;;;;;5017210;28;20190;-83
2021/03/28 03:54:41;;;;;;;4.55;2.55;;;;;;;;;;5016932;28;20634;-82
2021/03/28 03:57:22;;;;;;;3.40;2.28;;;;;;;;;;5015839;28;20246;-83
2021/03/28 04:00:02;;;;;;;5.93;2.47;;;;;;;;;;5016849;28;20644;-83
2021/03/28 04:02:47;;;;;;;6.25;2.72;;;;;;;;;;5016919;28;20626;-84
2021/03/28 04:05:38;;;;;;;7.07;3.17;;;;;;;;;;5016191;28;21125;-82
2021/03/28 04:08:42;;;;;;;4.10;2.42;;;;;;;;;;5016276;28;20671;-83
2021/03/28 04:11:31;;;;;;;5.00;2.40;;;;;;;;;;5016852;28;20183;-83
2021/03/28 04:14:16;;;;;;;3.97;2.08;;;;;;;;;;5016834;28;20187;-82
2021/03/28 04:16:59;;;;;;;4.95;2.53;;;;;;;;;;5015546;28;20227;-83
2021/03/28 04:19:33;;;;;;;3.97;2.22;;;;;;;;;;5015938;28;20206;-83
2021/03/28 04:22:33;;;;;;;8.25;2.63;;;;;;;;;;5016333;28;20206;-83
2021/03/28 04:25:17;;;;;;;9.32;2.80;;;;;;;;;;5015649;28;20607;-84
2021/03/28 04:28:29;;;;;;;5.13;2.20;;;;;;;;;;5017039;28;20230;-83
2021/03/28 04:31:30;;;;;;;8.35;3.03;;;;;;;;;;5015951;28;20199;-84
2021/03/28 04:34:03;;;;;;;4.10;2.15;;;;;;;;;;5016291;28;20270;-82
2021/03/28 04:36:37;;;;;;;5.82;2.53;;;;;;;;;;5015578;28;20261;-83
2021/03/28 04:39:48;;;;;;;3.45;2.13;;;;;;;;;;5016231;28;20695;-83
2021/03/28 04:42:45;;;;;;;4.88;1.90;;;;;;;;;;5016530;28;20199;-84
2021/03/28 04:45:54;;;;;;;7.50;2.30;;;;;;;;;;5015910;28;20573;-84
2021/03/28 04:48:48;;;;;;;8.13;2.80;;;;;;;;;;5016084;28;20772;-82
2021/03/28 04:52:09;;;;;;;6.53;2.80;;;;;;;;;;5016771;28;20207;-84
2021/03/28 04:55:32;;;;;;;5.35;2.70;;;;;;;;;;5016496;28;20646;-83
2021/03/28 04:58:14;;;;;;;9.93;2.33;;;;;;;;;;4946070;28;20616;-83
2021/03/28 05:01:07;;;;;;;4.82;2.35;;;;;;;;;;5018139;28;20197;-84
2021/03/28 05:04:25;;;;;;;5.15;2.47;;;;;;;;;;5020003;28;20285;-83
2021/03/28 05:07:48;;;;;;;3.70;2.50;;;;;;;;;;5002953;28;20291;-83
2021/03/28 05:10:47;;;;;;;6.18;3.15;;;;;;;;;;5015054;28;20270;-84
2021/03/28 05:13:56;;;;;;;2.85;2.28;;;;;;;;;;5015211;28;20210;-83
2021/03/28 05:17:07;;;;;;;4.78;2.40;;;;;;;;;;5014242;28;20273;-84
2021/03/28 05:19:59;;;;;;;3.90;2.28;;;;;;;;;;5014662;28;20210;-83
2021/03/28 05:22:55;;;;;;;4.78;2.20;;;;;;;;;;5015627;28;20193;-84
2021/03/28 05:25:35;;;;;;;6.15;2.80;;;;;;;;;;5014787;28;20762;-83
2021/03/28 05:29:14;;;;;;;5.88;2.70;;;;;;;;;;5014878;28;20190;-81
2021/03/28 05:32:38;;;;;;;5.20;2.50;;;;;;;;;;4934580;29;20209;-84
2021/03/28 05:35:24;;;;;;;6.80;2.30;;;;;;;;;;4933951;29;20742;-82
2021/03/28 05:38:15;;;;;;;5.85;2.28;;;;;;;;;;5011363;28;20202;-84
2021/03/28 05:41:08;;;;;;;4.88;2.47;;;;;;;;;;5015031;28;20207;-83
2021/03/28 05:44:21;;;;;;;6.22;2.67;;;;;;;;;;5015032;28;20203;-83
2021/03/28 05:47:27;;;;;;;3.85;2.25;;;;;;;;;;4994137;28;20227;-82
2021/03/28 05:50:19;;;;;;;4.22;2.13;;;;;;;;;;5014966;28;20696;-84
2021/03/28 05:53:25;;;;;;;8.15;2.55;;;;;;;;;;5015122;28;20203;-85
2021/03/28 05:56:39;;;;;;;2.85;2.05;;;;;;;;;;5038005;23;20225;-86
2021/03/28 05:59:23;;;;;;;6.88;2.72;;;;;;;;;;5012493;28;20249;-86
2021/03/28 06:02:40;;;;;;;8.00;3.60;;;;;;;;;;5017366;28;20248;-84
2021/03/28 06:06:00;;;;;;;2.97;2.35;;;;;;;;;;5017758;28;20222;-84
2021/03/28 06:09:18;;;;;;;6.20;2.20;;;;;;;;;;4965430;28;20208;-85
2021/03/28 06:12:31;;;;;;;4.18;2.08;;;;;;;;;;4998497;28;20263;-84
2021/03/28 06:15:34;;;;;;;5.38;2.30;;;;;;;;;;4995041;28;20625;-84
2021/03/28 06:18:46;;;;;;;7.85;2.95;;;;;;;;;;4997251;28;20330;-83
2021/03/28 06:21:41;;;;;;;4.70;2.20;;;;;;;;;;4998324;28;20180;-85
2021/03/28 06:25:03;;;;;;;6.95;2.95;;;;;;;;;;4998554;28;20196;-84
2021/03/28 06:28:21;;;;;;;3.65;2.47;;;;;;;;;;4986915;28;20247;-84
2021/03/28 06:31:26;;;;;;;3.97;2.13;;;;;;;;;;4998010;28;20242;-81
2021/03/28 06:34:32;;;;;;;6.38;2.72;;;;;;;;;;4998120;28;20214;-85
2021/03/28 06:37:41;;;;;;;2.65;1.77;;;;;;;;;;4997724;28;20234;-84
2021/03/28 06:40:42;;;;;;;5.47;2.83;;;;;;;;;;4998067;28;20210;-85
2021/03/28 06:44:03;;;;;;;3.75;2.22;;;;;;;;;;4998552;28;20207;-85
2021/03/28 06:47:22;;;;;;;4.85;2.13;;;;;;;;;;4982532;28;20237;-85
2021/03/28 06:50:28;;;;;;;6.65;2.45;;;;;;;;;;4997214;28;20262;-85
2021/03/28 06:53:18;;;;;;;2.63;2.42;;;;;;;;;;4997722;28;20665;-84
2021/03/28 06:55:46;;;;;;;6.07;2.42;;;;;;;;;;4997694;28;20650;-84
2021/03/28 06:58:48;;;;;;;3.58;2.10;;;;;;;;;;4998453;28;20219;-84
2021/03/28 07:02:17;;;;;;;5.57;2.67;;;;;;;;;;4998431;28;20199;-85
2021/03/28 07:05:23;;;;;;;3.97;2.38;;;;;;;;;;4998478;28;20195;-85
2021/03/28 07:08:18;;;;;;;7.78;3.08;;;;;;;;;;4998719;28;20312;-85
2021/03/28 07:11:20;;;;;;;3.28;2.00;;;;;;;;;;4998462;28;20267;-84
2021/03/28 07:14:49;;;;;;;5.03;2.67;;;;;;;;;;4982827;28;20203;-85
2021/03/28 07:18:00;;;;;;;5.90;2.22;;;;;;;;;;4941214;28;20251;-84
2021/03/28 07:21:06;;;;;;;4.18;2.00;;;;;;;;;;4996703;28;20283;-84
2021/03/28 07:24:34;;;;;;;4.63;1.80;;;;;;;;;;4997300;28;20244;-85
2021/03/28 07:27:57;;;;;;;5.20;2.60;;;;;;;;;;4991172;28;20219;-85
2021/03/28 07:30:58;;;;;;;3.55;2.05;;;;;;;;;;4989766;28;20234;-84
2021/03/28 07:34:24;;;;;;;6.15;2.17;;;;;;;;;;4996990;28;20199;-85
2021/03/28 07:37:51;;;;;;;5.32;2.20;;;;;;;;;;4997097;28;20310;-85
2021/03/28 07:40:32;;;;;;;2.45;1.60;;;;;;;;;;4954694;28;20203;-85
2021/03/28 07:43:21;;;;;;;6.50;2.50;;;;;;;;;;4996528;28;20265;-86
2021/03/28 07:46:22;;;;;;;3.10;1.98;;;;;;;;;;4996305;28;20220;-85
2021/03/28 07:49:52;;;;;;;4.70;2.88;;;;;;;;;;4996258;28;20279;-86
2021/03/28 07:53:13;;;;;;;3.13;2.20;;;;;;;;;;4901010;29;20207;-85
2021/03/28 07:55:55;;;;;;;2.80;1.75;;;;;;;;;;4926916;28;20197;-84
2021/03/28 07:58:41;;;;;;;6.00;1.95;;;;;;;;;;4999001;28;20271;-86
2021/03/28 08:01:38;;;;;;;4.30;2.42;;;;;;;;;;4999749;28;20200;-84
2021/03/28 08:04:40;;;;;;;5.50;1.60;;;;;;;;;;4999662;28;20199;-85
2021/03/28 08:07:45;;;;;;;5.10;2.50;;;;;;;;;;4998595;28;20233;-85
2021/03/28 08:10:58;;;;;;;4.78;2.17;;;;;;;;;;4998527;28;20203;-85
2021/03/28 08:14:06;;;;;;;4.03;2.33;;;;;;;;;;4998933;28;20186;-85
2021/03/28 08:16:57;;;;;;;3.20;1.98;;;;;;;;;;4998938;28;20219;-86
2021/03/28 08:19:54;;;;;;;3.55;1.73;;;;;;;;;;4998650;28;20223;-84
2021/03/28 08:22:30;;;;;;;5.55;2.53;;;;;;;;;;4999253;28;20683;-86
2021/03/28 08:25:30;;;;;;;4.78;2.00;;;;;;;;;;4999326;28;20180;-86
2021/03/28 08:28:28;;;;;;;1.95;1.75;;;;;;;;;;4998356;28;20227;-86
2021/03/28 08:31:21;;;;;;;8.93;2.60;;;;;;;;;;4997546;28;20289;-85
2021/03/28 08:34:44;;;;;;;4.47;2.67;;;;;;;;;;4994955;28;20608;-82
2021/03/28 08:37:56;;;;;;;2.80;2.08;;;;;;;;;;4998482;28;20219;-85
2021/03/28 08:40:57;;;;;;;4.07;2.40;;;;;;;;;;4998868;28;20286;-86
2021/03/28 08:44:10;;;;;;;4.63;1.88;;;;;;;;;;4998739;28;20203;-85
2021/03/28 08:47:20;;;;;;;5.05;2.40;;;;;;;;;;4978860;28;20291;-86
2021/03/28 08:49:53;;;;;;;3.22;2.20;;;;;;;;;;4999135;28;20207;-86
2021/03/28 08:52:43;;;;;;;3.33;2.30;;;;;;;;;;4999602;28;20194;-85
2021/03/28 08:55:28;;;;;;;3.83;2.38;;;;;;;;;;4998911;28;20192;-85
2021/03/28 08:58:04;;;;;;;5.13;2.38;;;;;;;;;;4998933;28;20618;-84
2021/03/28 09:00:38;;;;;;;6.18;2.83;;;;;;;;;;4998616;28;20680;-86
2021/03/28 09:03:57;;;;;;;4.80;2.47;;;;;;;;;;4998302;28;20276;-84
2021/03/28 09:06:48;;;;;;;6.32;2.47;;;;;;;;;;4919223;29;20254;-85
2021/03/28 09:09:42;;;;;;;5.05;2.20;;;;;;;;;;4920803;29;20203;-85
2021/03/28 09:12:28;;;;;;;3.05;2.25;;;;;;;;;;4981289;28;20203;-85
2021/03/28 09:15:42;;;;;;;3.08;2.20;;;;;;;;;;4998167;28;20737;-86
2021/03/28 09:18:27;;;;;;;3.45;2.38;;;;;;;;;;4981536;28;20203;-86
2021/03/28 09:21:00;;;;;;;5.35;2.30;;;;;;;;;;4999041;28;20299;-84
2021/03/28 09:23:40;;;;;;;3.90;2.28;;;;;;;;;;4998523;28;20255;-86
2021/03/28 09:26:30;;;;;;;3.67;2.60;;;;;;;;;;4997782;28;20581;-85
2021/03/28 09:29:12;;;;;;;4.15;2.72;;;;;;;;;;4998669;28;20184;-85
2021/03/28 09:31:53;;;;;;;4.20;2.30;;;;;;;;;;4997974;28;20214;-86
2021/03/28 09:34:49;;;;;;;3.53;2.45;;;;;;;;;;4997876;28;20282;-84
2021/03/28 09:37:23;;;;;;;5.15;2.67;;;;;;;;;;4992073;28;20226;-86
2021/03/28 09:40:26;;;;;;;2.05;1.85;;;;;;;;;;4997310;28;20574;-85
2021/03/28 09:43:16;;;;;;;3.65;2.88;;;;;;;;;;4966719;28;20225;-85
2021/03/28 09:46:17;;;;;;;3.75;2.72;;;;;;;;;;4996840;28;20222;-84
2021/03/28 09:49:29;;;;;;;8.88;3.10;;;;;;;;;;4997572;28;20203;-86
2021/03/28 09:52:33;;;;;;;3.15;2.53;;;;;;;;;;4997239;28;20758;-86
2021/03/28 09:55:35;;;;;;;4.28;2.72;;;;;;;;;;4996504;28;20206;-84
2021/03/28 09:58:57;;;;;;;5.50;2.90;;;;;;;;;;4995738;28;20314;-86
2021/03/28 10:01:54;;;;;;;8.30;2.85;;;;;;;;;;4997889;28;20278;-84
2021/03/28 10:04:49;;;;;;;9.50;3.45;;;;;;;;;;4997356;28;20188;-84
2021/03/28 10:07:25;;;;;;;4.55;3.05;;;;;;;;;;4981152;28;20314;-86
2021/03/28 10:10:09;;;;;;;4.93;2.72;;;;;;;;;;4997434;28;20267;-85
2021/03/28 10:12:45;;;;;;;3.88;2.58;;;;;;;;;;4998602;28;20188;-84
2021/03/28 10:15:17;;;;;;;3.95;2.40;;;;;;;;;;4997997;28;20242;-85
2021/03/28 10:17:51;;;;;;;3.95;2.67;;;;;;;;;;4999299;28;20278;-85
2021/03/28 10:21:00;;;;;;;7.22;2.92;;;;;;;;;;4999340;28;20618;-83
2021/03/28 10:23:49;;;;;;;4.47;2.38;;;;;;;;;;4999633;28;20574;-85
2021/03/28 10:26:38;;;;;;;6.10;3.90;;;;;;;;;;4999408;28;20291;-85
2021/03/28 10:29:30;;;;;;;4.28;2.63;;;;;;;;;;4999286;28;20184;-85
2021/03/28 10:32:08;;;;;;;6.03;3.10;;;;;;;;;;4997903;28;20234;-85
2021/03/28 10:35:07;;;;;;;5.78;4.60;;;;;;;;;;4997842;28;20234;-85
2021/03/28 10:38:35;;;;;;;3.95;2.83;;;;;;;;;;4998480;28;20635;-85
2021/03/28 10:41:17;;;;;;;4.43;3.00;;;;;;;;;;4971351;28;20214;-85
2021/03/28 10:44:07;;;;;;;6.30;3.25;;;;;;;;;;4998279;28;20192;-85
2021/03/28 10:47:09;;;;;;;6.22;2.88;;;;;;;;;;4959938;28;20227;-85
2021/03/28 10:50:46;;;;;;;3.88;2.85;;;;;;;;;;4998493;28;20222;-84
2021/03/28 10:53:43;;;;;;;8.45;3.05;;;;;;;;;;4918699;29;20246;-85
2021/03/28 10:56:44;;;;;;;5.13;3.63;;;;;;;;;;4918720;29;20226;-85
2021/03/28 11:00:29;;;;;;;4.07;2.78;;;;;;;;;;4998457;28;20217;-84
2021/03/28 11:03:58;;;;;;;5.75;3.20;;;;;;;;;;4936319;29;20206;-84
2021/03/28 11:07:09;;;;;;;3.72;2.72;;;;;;;;;;4938428;28;20225;-84
2021/03/28 11:09:56;;;;;;;4.75;2.78;;;;;;;;;;4997706;28;20204;-85
2021/03/28 11:12:58;;;;;;;4.75;2.47;;;;;;;;;;4997467;28;20227;-85
2021/03/28 11:15:38;;;;;;;4.78;2.60;;;;;;;;;;4997886;28;20226;-85
2021/03/28 11:18:33;;;;;;;5.72;2.38;;;;;;;;;;4997843;28;20191;-84
2021/03/28 11:21:04;;;;;;;2.97;1.95;;;;;;;;;;4997455;28;20184;-85
2021/03/28 11:23:58;;;;;;;3.17;1.98;;;;;;;;;;4997101;28;20187;-85
2021/03/28 11:27:12;;;;;;;4.35;1.85;;;;;;;;;;5000595;28;20230;-86
2021/03/28 11:30:07;;;;;;;5.85;2.22;;;;;;;;;;5000999;28;20298;-85
2021/03/28 11:32:56;;;;;;;2.90;1.75;;;;;;;;;;5003047;28;20188;-85
2021/03/28 11:35:30;;;;;;;2.88;2.00;;;;;;;;;;5000944;28;20204;-83
2021/03/28 11:39:00;;;;;;;3.08;1.92;;;;;;;;;;5000389;28;20229;-84
2021/03/28 11:41:53;;;;;;;6.15;2.55;;;;;;;;;;4984949;28;20203;-86
2021/03/28 11:44:33;;;;;;;1.92;1.40;;;;;;;;;;5001889;28;20692;-85
2021/03/28 11:47:29;;;;;;;3.92;1.92;;;;;;;;;;5001057;28;20231;-84
2021/03/28 11:50:36;;;;;;;3.30;1.85;;;;;;;;;;5000970;28;20198;-85
2021/03/28 11:53:12;;;;;;;3.67;2.10;;;;;;;;;;4999014;28;20826;-85
2021/03/28 11:55:48;;;;;;;3.65;2.33;;;;;;;;;;4998114;28;20282;-85
2021/03/28 11:58:31;;;;;;;2.33;1.77;;;;;;;;;;4999180;28;20199;-85
2021/03/28 12:01:00;;;;;;;2.55;1.80;;;;;;;;;;4998959;28;20287;-84
2021/03/28 12:03:39;;;;;;;3.50;1.70;;;;;;;;;;4999427;28;20271;-84
2021/03/28 12:06:48;;;;;;;2.47;1.88;;;;;;;;;;4998603;28;20216;-84
2021/03/28 12:09:30;;;;;;;1.77;1.58;;;;;;;;;;4999030;28;20588;-85
2021/03/28 12:12:12;;;;;;;8.07;2.28;;;;;;;;;;4998315;28;20200;-84
2021/03/28 12:14:39;;;;;;;2.03;1.42;;;;;;;;;;4998891;28;20188;-84
2021/03/28 12:17:21;;;;;;;2.22;1.38;;;;;;;;;;4998766;28;20280;-85
2021/03/28 12:20:01;;;;;;;2.63;1.73;;;;;;;;;;4997849;28;20188;-83
2021/03/28 12:22:32;;;;;;;2.42;1.40;;;;;;;;;;4998122;28;20243;-84
2021/03/28 12:25:06;;;;;;;2.35;1.70;;;;;;;;;;4998330;28;20272;-83
2021/03/28 12:27:39;;;;;;;3.20;1.70;;;;;;;;;;4997621;28;20301;-84
2021/03/28 12:30:33;;;;;;;3.10;1.55;;;;;;;;;;4998530;28;20258;-84
2021/03/28 12:33:08;;;;;;;1.98;1.55;;;;;;;;;;4998187;28;20263;-84
2021/03/28 12:36:00;;;;;;;2.53;1.50;;;;;;;;;;4997951;28;20201;-84
2021/03/28 12:38:45;;;;;;;2.05;1.63;;;;;;;;;;4997824;28;20310;-84
2021/03/28 12:41:19;;;;;;;1.98;1.23;;;;;;;;;;4997933;28;20658;-84
2021/03/28 12:43:49;;;;;;;4.90;1.80;;;;;;;;;;4998956;28;20187;-84
2021/03/28 12:46:52;;;;;;;4.43;1.85;;;;;;;;;;4997693;28;20311;-85
2021/03/28 12:49:29;;;;;;;4.72;1.73;;;;;;;;;;4998331;28;20188;-85
2021/03/28 12:52:25;;;;;;;2.88;1.35;;;;;;;;;;4997540;28;20203;-83
2021/03/28 12:55:27;;;;;;;2.65;1.38;;;;;;;;;;4996736;28;20286;-84
2021/03/28 12:57:56;;;;;;;4.38;2.65;;;;;;;;;;4997950;28;20231;-85
2021/03/28 13:00:38;;;;;;;3.08;1.52;;;;;;;;;;4997300;28;20252;-84
2021/03/28 13:03:19;;;;;;;3.22;1.42;;;;;;;;;;4997174;28;20582;-84
2021/03/28 13:06:26;;;;;;;2.40;1.80;;;;;;;;;;4996826;28;20208;-83
2021/03/28 13:08:58;;;;;;;5.03;1.67;;;;;;;;;;4997059;28;20203;-84
2021/03/28 13:11:42;;;;;;;4.43;1.55;;;;;;;;;;4997262;28;20214;-84
2021/03/28 13:14:33;;;;;;;3.90;1.67;;;;;;;;;;4996920;28;20188;-83
2021/03/28 13:17:04;;;;;;;3.55;1.48;;;;;;;;;;4996372;28;20589;-84
2021/03/28 13:19:36;;;;;;;4.95;1.88;;;;;;;;;;4997296;28;20215;-84
2021/03/28 13:22:43;;;;;;;2.55;1.27;;;;;;;;;;4996858;28;20195;-84
2021/03/28 13:25:27;;;;;;;2.45;1.35;;;;;;;;;;4989402;28;20283;-84
2021/03/28 13:28:26;;;;;;;5.25;1.48;;;;;;;;;;4996310;28;20223;-84
2021/03/28 13:30:53;;;;;;;2.30;1.25;;;;;;;;;;4993929;28;20222;-84
2021/03/28 13:33:36;;;;;;;2.53;1.33;;;;;;;;;;4995757;28;20198;-84
2021/03/28 13:36:16;;;;;;;1.73;1.38;;;;;;;;;;4994335;28;20693;-85
2021/03/28 13:39:15;;;;;;;3.17;1.55;;;;;;;;;;4995328;28;20227;-84
2021/03/28 13:41:46;;;;;;;4.43;1.67;;;;;;;;;;4996384;28;20694;-84
2021/03/28 13:44:27;;;;;;;3.55;1.55;;;;;;;;;;4996905;28;20192;-84
2021/03/28 13:46:57;;;;;;;2.58;1.42;;;;;;;;;;4994980;28;20215;-84
2021/03/28 13:49:51;;;;;;;4.35;1.77;;;;;;;;;;4994621;28;20306;-84
2021/03/28 13:52:23;;;;;;;2.10;1.80;;;;;;;;;;4985224;28;20859;-84
2021/03/28 13:55:06;;;;;;;3.65;2.47;;;;;;;;;;4995609;28;20191;-85
2021/03/28 13:57:36;;;;;;;4.05;1.38;;;;;;;;;;4993249;28;20322;-84
2021/03/28 14:00:33;;;;;;;4.07;2.00;;;;;;;;;;4994935;28;20251;-84
2021/03/28 14:03:17;;;;;;;4.47;1.52;;;;;;;;;;4994043;28;20692;-84
2021/03/28 14:05:47;;;;;;;5.10;2.22;;;;;;;;;;4994152;28;20287;-83
2021/03/28 14:08:18;;;;;;;3.55;1.55;;;;;;;;;;4992778;28;20215;-83
2021/03/28 14:10:50;;;;;;;5.90;2.28;;;;;;;;;;4995398;28;20208;-83
2021/03/28 14:13:22;;;;;;;2.47;1.77;;;;;;;;;;4995990;28;20210;-85
2021/03/28 14:15:54;;;;;;;4.07;1.98;;;;;;;;;;4994145;28;20212;-84
2021/03/28 14:18:31;;;;;;;2.45;1.40;;;;;;;;;;4996748;28;20196;-84
2021/03/28 14:21:36;;;;;;;2.67;1.65;;;;;;;;;;4994555;28;20199;-85
2021/03/28 14:24:25;;;;;;;2.22;1.70;;;;;;;;;;4979273;28;20217;-84
2021/03/28 14:27:12;;;;;;;4.43;1.58;;;;;;;;;;4995915;28;20239;-84
2021/03/28 14:29:40;;;;;;;2.60;1.40;;;;;;;;;;4996378;28;20553;-84
2021/03/28 14:32:21;;;;;;;3.15;1.83;;;;;;;;;;4996567;28;20200;-84
2021/03/28 14:35:24;;;;;;;2.83;1.63;;;;;;;;;;4996026;28;20219;-84
2021/03/28 14:38:45;;;;;;;1.88;1.70;;;;;;;;;;4996061;28;20223;-84
2021/03/28 14:41:36;;;;;;;2.85;1.75;;;;;;;;;;4996222;28;20226;-84
2021/03/28 14:44:41;;;;;;;3.20;1.70;;;;;;;;;;4996499;28;20266;-84
2021/03/28 14:47:19;;;;;;;5.78;1.60;;;;;;;;;;4995830;28;20242;-85
2021/03/28 14:49:53;;;;;;;7.75;1.77;;;;;;;;;;4996343;28;20199;-84
2021/03/28 14:52:48;;;;;;;3.55;1.77;;;;;;;;;;4995179;28;20266;-84
2021/03/28 14:55:30;;;;;;;3.60;1.52;;;;;;;;;;4977912;28;20210;-83
2021/03/28 14:58:15;;;;;;;2.42;1.48;;;;;;;;;;4994599;28;20231;-84
2021/03/28 15:00:48;;;;;;;3.10;1.45;;;;;;;;;;4990050;28;20215;-84
2021/03/28 15:03:48;;;;;;;1.77;1.30;;;;;;;;;;5000049;28;20332;-84
2021/03/28 15:06:30;;;;;;;3.42;1.75;;;;;;;;;;4999152;28;20219;-84
2021/03/28 15:09:01;;;;;;;2.40;1.55;;;;;;;;;;4999044;28;20697;-84
2021/03/28 15:11:34;;;;;;;3.30;1.88;;;;;;;;;;4999156;28;20242;-84
2021/03/28 15:14:12;;;;;;;3.65;1.55;;;;;;;;;;4999107;28;20279;-84
2021/03/28 15:16:47;;;;;;;4.18;2.05;;;;;;;;;;4999486;28;20250;-84
2021/03/28 15:19:24;;;;;;;3.35;1.75;;;;;;;;;;4999178;28;20286;-83
2021/03/28 15:22:10;;;;;;;3.13;1.58;;;;;;;;;;4998854;28;20283;-83
2021/03/28 15:24:48;;;;;;;4.00;1.55;;;;;;;;;;4999841;28;20673;-84
2021/03/28 15:27:28;;;;;;;3.50;1.88;;;;;;;;;;4998459;28;20227;-84
2021/03/28 15:30:10;;;;;;;1.85;1.48;;;;;;;;;;4993208;28;20608;-84
2021/03/28 15:33:00;;;;;;;5.50;1.65;;;;;;;;;;4998831;28;20284;-85
2021/03/28 15:35:37;;;;;;;4.82;1.90;;;;;;;;;;4998637;28;20662;-84
2021/03/28 15:38:44;;;;;;;3.75;1.48;;;;;;;;;;4999136;28;20284;-84
2021/03/28 15:41:31;;;;;;;2.67;1.60;;;;;;;;;;4999109;28;20212;-83
2021/03/28 15:44:11;;;;;;;2.17;1.20;;;;;;;;;;4998522;28;20241;-83
2021/03/28 15:46:52;;;;;;;1.98;1.60;;;;;;;;;;4998156;28;20233;-84
2021/03/28 15:49:57;;;;;;;2.15;1.38;;;;;;;;;;4999391;28;20229;-84
2021/03/28 15:52:54;;;;;;;6.47;2.03;;;;;;;;;;4999141;28;20546;-83
2021/03/28 15:55:50;;;;;;;1.95;1.55;;;;;;;;;;4995303;28;20733;-83
2021/03/28 15:58:36;;;;;;;2.25;1.45;;;;;;;;;;4998571;28;20234;-84
2021/03/28 16:01:18;;;;;;;2.22;1.50;;;;;;;;;;4998174;28;20767;-83
2021/03/28 16:04:06;;;;;;;2.78;1.50;;;;;;;;;;4999167;28;20261;-85
2021/03/28 16:06:49;;;;;;;3.92;1.75;;;;;;;;;;4998121;28;20731;-84
2021/03/28 16:09:51;;;;;;;1.85;1.40;;;;;;;;;;4998742;28;20227;-84
2021/03/28 16:12:43;;;;;;;2.05;1.30;;;;;;;;;;4997932;28;20203;-84
2021/03/28 16:15:15;;;;;;;2.13;1.92;;;;;;;;;;4997835;28;20670;-84
2021/03/28 16:18:08;;;;;;;4.10;2.15;;;;;;;;;;4997653;28;20220;-84
2021/03/28 16:21:29;;;;;;;2.20;1.30;;;;;;;;;;4995892;28;20738;-84
2021/03/28 16:24:15;;;;;;;3.13;1.35;;;;;;;;;;4982518;28;20272;-84
2021/03/28 16:27:00;;;;;;;2.72;1.40;;;;;;;;;;4997302;28;20285;-84
2021/03/28 16:29:42;;;;;;;3.90;2.08;;;;;;;;;;4997116;28;20277;-84
2021/03/28 16:32:49;;;;;;;9.30;1.88;;;;;;;;;;4998082;28;20311;-84
2021/03/28 16:35:33;;;;;;;5.72;2.00;;;;;;;;;;4997931;28;20455;-84
2021/03/28 16:38:30;;;;;;;2.15;1.42;;;;;;;;;;4997803;28;20287;-84
2021/03/28 16:41:01;;;;;;;2.72;1.42;;;;;;;;;;4997707;28;20287;-84
2021/03/28 16:43:33;;;;;;;3.03;1.90;;;;;;;;;;4997658;28;20266;-84
2021/03/28 16:46:05;;;;;;;3.75;1.70;;;;;;;;;;4996995;28;20718;-84
2021/03/28 16:48:47;;;;;;;4.93;1.63;;;;;;;;;;4997023;28;20274;-82
2021/03/28 16:51:20;;;;;;;5.07;1.60;;;;;;;;;;4997683;28;20327;-83
2021/03/28 16:53:57;;;;;;;3.15;1.60;;;;;;;;;;4997287;28;20192;-84
2021/03/28 16:56:40;;;;;;;3.67;1.40;;;;;;;;;;4997075;28;20326;-83
2021/03/28 16:59:28;;;;;;;8.55;2.55;;;;;;;;;;4996830;28;20216;-83
2021/03/28 17:01:55;;;;;;;2.53;1.48;;;;;;;;;;4996497;28;20684;-84
2021/03/28 17:04:30;;;;;;;2.45;1.55;;;;;;;;;;4997475;28;20342;-84